createdAt,value
2019-05-10T00:05:22.557Z,94841.00
2019-05-10T00:10:56.203Z,94840.00
2019-05-10T00:16:26.744Z,94842.00
2019-05-10T00:21:56.097Z,94844.00
2019-05-10T00:27:25.374Z,94845.00
2019-05-10T00:32:54.693Z,94853.00
2019-05-10T00:38:23.932Z,94852.00
2019-05-10T00:43:53.212Z,94859.00
2019-05-10T00:49:22.487Z,94863.00
2019-05-10T00:54:51.760Z,94863.00
2019-05-10T01:00:22.157Z,94864.00
2019-05-10T01:05:53.356Z,94882.00
2019-05-10T01:11:22.651Z,94876.00
2019-05-10T01:16:51.928Z,94875.00
2019-05-10T01:22:21.482Z,94879.00
2019-05-10T01:27:50.741Z,94883.00
2019-05-10T01:33:20.162Z,94883.00
2019-05-10T01:38:50.396Z,94879.00
2019-05-10T01:44:19.668Z,94899.00
2019-05-10T01:49:48.946Z,94909.00
2019-05-10T01:55:19.173Z,94905.00
2019-05-10T02:00:48.457Z,94916.00
2019-05-10T02:06:17.738Z,94917.00
2019-05-10T02:11:46.996Z,94913.00
2019-05-10T02:17:16.258Z,94918.00
2019-05-10T02:22:45.667Z,94923.00
2019-05-10T02:28:14.947Z,94925.00
2019-05-10T02:33:44.240Z,94928.00
2019-05-10T02:39:13.835Z,94941.00
2019-05-10T02:44:43.436Z,94939.00
2019-05-10T02:50:14.018Z,94947.00
2019-05-10T02:55:43.869Z,94954.00
2019-05-10T03:01:14.753Z,94951.00
2019-05-10T03:06:45.126Z,94950.00
2019-05-10T03:12:25.643Z,94937.00
2019-05-10T03:17:56.488Z,94953.00
2019-05-10T03:23:27.123Z,94941.00
2019-05-10T03:28:56.394Z,94957.00
2019-05-10T03:34:25.744Z,94954.00
2019-05-10T03:39:55.052Z,94942.00
2019-05-10T03:45:24.318Z,94947.00
2019-05-10T03:50:53.649Z,94948.00
2019-05-10T03:56:22.926Z,94946.00
2019-05-10T04:01:52.189Z,94968.00
2019-05-10T04:07:21.458Z,94967.00
2019-05-10T04:12:50.733Z,94981.00
2019-05-10T04:18:20.051Z,94975.00
2019-05-10T04:23:49.305Z,94983.00
2019-05-10T04:29:18.565Z,94976.00
2019-05-10T04:34:47.832Z,94987.00
2019-05-10T04:40:17.116Z,94987.00
2019-05-10T04:45:46.387Z,95002.00
2019-05-10T04:51:15.648Z,94994.00
2019-05-10T04:56:45.057Z,94995.00
2019-05-10T05:02:14.324Z,95002.00
2019-05-10T05:07:43.583Z,95007.00
2019-05-10T05:13:12.870Z,95012.00
2019-05-10T05:18:42.143Z,95012.00
2019-05-10T05:24:16.863Z,95013.00
2019-05-10T05:29:42.593Z,95020.00
2019-05-10T05:35:15.279Z,95023.00
2019-05-10T05:40:42.947Z,95031.00
2019-05-10T05:46:14.479Z,95041.00
2019-05-10T05:51:43.217Z,95049.00
2019-05-10T05:57:12.502Z,95057.00
2019-05-10T06:02:44.804Z,95051.00
2019-05-10T06:08:30.217Z,95055.00
2019-05-10T06:13:44.555Z,95062.00
2019-05-10T06:19:13.833Z,95064.00
2019-05-10T06:24:46.768Z,95072.00
2019-05-10T06:30:14.614Z,95073.00
2019-05-10T06:35:43.892Z,95075.00
2019-05-10T06:41:16.769Z,95084.00
2019-05-10T06:46:44.203Z,95083.00
2019-05-10T06:52:16.247Z,95092.00
2019-05-10T06:57:44.452Z,95104.00
2019-05-10T07:03:13.725Z,95115.00
2019-05-10T07:08:45.668Z,95122.00
2019-05-10T07:14:14.073Z,95113.00
2019-05-10T07:19:53.845Z,95120.00
2019-05-10T07:25:15.494Z,95120.00
2019-05-10T07:30:44.847Z,95131.00
2019-05-10T07:36:15.402Z,95126.00
2019-05-10T07:41:45.160Z,95129.00
2019-05-10T07:47:14.445Z,95131.00
2019-05-10T07:52:45.611Z,95139.00
2019-05-10T07:58:14.709Z,95145.00
2019-05-10T08:03:48.259Z,95155.00
2019-05-10T08:09:15.058Z,95170.00
2019-05-10T08:14:48.866Z,95177.00
2019-05-10T08:20:28.129Z,95176.00
2019-05-10T08:25:47.301Z,95179.00
2019-05-10T08:31:16.958Z,95168.00
2019-05-10T08:36:47.898Z,95155.00
2019-05-10T08:42:32.610Z,95161.00
2019-05-10T08:47:52.877Z,95163.00
2019-05-10T08:53:19.178Z,95165.00
2019-05-10T08:58:57.313Z,95163.00
2019-05-10T09:04:33.536Z,95172.00
2019-05-10T09:09:58.586Z,95176.00
2019-05-10T09:15:28.826Z,95165.00
2019-05-10T09:21:00.376Z,95162.00
2019-05-10T09:26:29.114Z,95179.00
2019-05-10T09:32:01.167Z,95166.00
2019-05-10T09:37:31.845Z,95168.00
2019-05-10T09:43:07.370Z,95159.00
2019-05-10T09:48:33.276Z,95152.00
2019-05-10T09:54:02.391Z,95159.00
2019-05-10T09:59:31.672Z,95160.00
2019-05-10T10:05:01.012Z,95158.00
2019-05-10T10:10:32.559Z,95179.00
2019-05-10T10:16:04.210Z,95204.00
2019-05-10T10:21:35.676Z,95201.00
2019-05-10T10:27:03.919Z,95188.00
2019-05-10T10:32:34.919Z,95187.00
2019-05-10T10:38:08.110Z,95179.00
2019-05-10T10:43:37.517Z,95183.00
2019-05-10T10:49:06.792Z,95193.00
2019-05-10T10:54:39.751Z,95191.00
2019-05-10T11:00:11.097Z,95194.00
2019-05-10T11:05:40.376Z,95193.00
2019-05-10T11:11:10.703Z,95203.00
2019-05-10T11:16:41.268Z,95201.00
2019-05-10T11:22:11.676Z,95206.00
2019-05-10T11:27:41.699Z,95192.00
2019-05-10T11:33:23.794Z,95215.00
2019-05-10T11:38:42.241Z,95206.00
2019-05-10T11:44:14.524Z,95228.00
2019-05-10T11:49:46.776Z,95228.00
2019-05-10T11:55:16.597Z,95222.00
2019-05-10T12:00:46.181Z,95213.00
2019-05-10T12:06:21.224Z,95224.00
2019-05-10T12:11:56.821Z,95227.00
2019-05-10T12:17:23.893Z,95235.00
2019-05-10T12:22:52.293Z,95232.00
2019-05-10T12:28:28.601Z,95230.00
2019-05-10T12:33:52.630Z,95243.00
2019-05-10T12:39:21.909Z,95254.00
2019-05-10T12:44:51.613Z,95249.00
2019-05-10T12:50:22.417Z,95260.00
2019-05-10T12:55:51.692Z,95250.00
2019-05-10T13:01:25.529Z,95263.00
2019-05-10T13:06:51.986Z,95271.00
2019-05-10T13:12:21.317Z,95267.00
2019-05-10T13:17:53.140Z,95252.00
2019-05-10T13:23:22.581Z,95254.00
2019-05-10T13:28:51.858Z,95250.00
2019-05-10T13:34:24.053Z,95249.00
2019-05-10T13:39:52.167Z,95245.00
2019-05-10T13:45:21.467Z,95237.00
2019-05-10T13:50:50.785Z,95235.00
2019-05-10T13:56:20.162Z,95234.00
2019-05-10T14:01:51.453Z,95230.00
2019-05-10T14:07:20.663Z,95232.00
2019-05-10T14:12:56.292Z,95237.00
2019-05-10T14:18:23.999Z,95226.00
2019-05-10T14:23:56.981Z,95232.00
2019-05-10T14:29:34.375Z,95222.00
2019-05-10T14:34:57.474Z,95215.00
2019-05-10T14:40:28.100Z,95222.00
2019-05-10T14:45:57.812Z,95211.00
2019-05-10T14:51:40.726Z,95189.00
2019-05-10T14:56:59.915Z,95224.00
2019-05-10T15:02:30.902Z,95229.00
2019-05-10T15:08:00.993Z,95236.00
2019-05-10T15:13:30.245Z,95229.00
2019-05-10T15:19:03.643Z,95224.00
2019-05-10T15:24:34.029Z,95215.00
2019-05-10T15:30:05.612Z,95223.00
2019-05-10T15:35:36.601Z,95229.00
2019-05-10T15:41:05.918Z,95228.00
2019-05-10T15:46:42.256Z,95231.00
2019-05-10T15:52:18.650Z,95224.00
2019-05-10T15:57:51.793Z,95226.00
2019-05-10T16:03:18.943Z,95248.00
2019-05-10T16:08:48.216Z,95260.00
2019-05-10T16:14:17.524Z,95258.00
2019-05-10T16:19:50.352Z,95249.00
2019-05-10T16:25:17.788Z,95251.00
2019-05-10T16:30:47.326Z,95258.00
2019-05-10T16:36:16.563Z,95238.00
2019-05-10T16:41:48.573Z,95256.00
2019-05-10T16:47:17.926Z,95244.00
2019-05-10T16:52:47.181Z,95243.00
2019-05-10T16:58:18.031Z,95240.00
2019-05-10T17:03:51.271Z,95260.00
2019-05-10T17:09:19.825Z,95255.00
2019-05-10T17:14:50.557Z,95250.00
2019-05-10T17:20:22.229Z,95258.00
2019-05-10T17:25:57.431Z,95262.00
2019-05-10T17:31:27.693Z,95262.00
2019-05-10T17:36:58.138Z,95252.00
2019-05-10T17:42:27.985Z,95256.00
2019-05-10T17:47:57.249Z,95257.00
2019-05-10T17:53:26.541Z,95253.00
2019-05-10T17:58:56.827Z,95259.00
2019-05-10T18:04:26.096Z,95253.00
2019-05-10T18:09:55.383Z,95258.00
2019-05-10T18:15:27.808Z,95266.00
2019-05-10T18:20:58.746Z,95255.00
2019-05-10T18:26:34.255Z,95261.00
2019-05-10T18:32:00.357Z,95277.00
2019-05-10T18:37:32.509Z,95282.00
2019-05-10T18:43:08.229Z,95295.00
2019-05-10T18:48:40.526Z,95291.00
2019-05-10T18:54:09.816Z,95307.00
2019-05-10T18:59:39.792Z,95301.00
2019-05-10T19:05:13.517Z,95309.00
2019-05-10T19:10:42.952Z,95304.00
2019-05-10T19:16:12.337Z,95314.00
2019-05-10T19:21:41.920Z,95319.00
2019-05-10T19:27:13.311Z,95329.00
2019-05-10T19:32:42.608Z,95324.00
2019-05-10T19:38:13.154Z,95322.00
2019-05-10T19:43:42.398Z,95329.00
2019-05-10T19:49:15.368Z,95332.00
2019-05-10T19:54:46.146Z,95319.00
2019-05-10T20:00:23.911Z,95327.00
2019-05-10T20:05:56.391Z,95332.00
2019-05-10T20:11:25.684Z,95323.00
2019-05-10T20:16:54.988Z,95310.00
2019-05-10T20:22:24.574Z,95319.00
2019-05-10T20:28:06.424Z,95312.00
2019-05-10T20:33:43.093Z,95306.00
2019-05-10T20:39:13.141Z,95302.00
2019-05-10T20:44:42.411Z,95303.00
2019-05-10T20:50:12.038Z,95298.00
2019-05-10T20:55:41.325Z,95287.00
2019-05-10T21:01:11.601Z,95279.00
2019-05-10T21:06:40.958Z,95274.00
2019-05-10T21:12:10.237Z,95261.00
2019-05-10T21:17:39.520Z,95263.00
2019-05-10T21:23:08.910Z,95270.00
2019-05-10T21:28:38.207Z,95258.00
2019-05-10T21:34:10.170Z,95251.00
2019-05-10T21:39:40.150Z,95269.00
2019-05-10T21:45:09.812Z,95267.00
2019-05-10T21:50:39.241Z,95261.00
2019-05-10T21:56:09.511Z,95256.00
2019-05-10T22:01:38.921Z,95253.00
2019-05-10T22:07:08.850Z,95256.00
2019-05-10T22:12:38.189Z,95252.00
2019-05-10T22:18:07.609Z,95265.00
2019-05-10T22:23:37.880Z,95264.00
2019-05-10T22:29:07.249Z,95254.00
2019-05-10T22:34:36.598Z,95251.00
2019-05-10T22:40:07.354Z,95251.00
2019-05-10T22:45:36.714Z,95245.00
2019-05-10T22:51:07.051Z,95245.00
2019-05-10T22:56:36.407Z,95243.00
2019-05-10T23:02:05.751Z,95237.00
2019-05-10T23:07:35.094Z,95239.00
2019-05-10T23:13:04.448Z,95230.00
2019-05-10T23:18:33.820Z,95236.00
2019-05-10T23:24:04.814Z,95239.00
2019-05-10T23:29:34.661Z,95243.00
2019-05-10T23:35:05.525Z,95249.00
2019-05-10T23:40:34.872Z,95251.00
2019-05-10T23:46:04.224Z,95244.00
2019-05-10T23:51:33.585Z,95233.00
2019-05-10T23:57:03.012Z,95226.00
